Aeroporto :
LOGIN :

Iscrizione | Disclaimer

   EN    FR    IT 

 










Sommario :    VFR   VFR Marginale   IFR   IFR Intensivo   IFR Molto Intensivo
Visibilità : 
Base nubi : 
>= 8 km
>= 3000ft
5 / 8 km
1000 / 3000 ft
1500m / 5 km
500 / 1000 ft
800 / 1500m
200 / 500 ft
< 800m
< 200 ft
Simboli :   Temporali  Nebbia  Neve Forte  Precipitazioni Forti  Vento > 20 kt
SIGMETs :   Varie  Temporali  Ghiacco  Turbolenza  Onda orograficha  Ceneri Vulcaniche






- Altitudine del aeroporto : 242 ft
- Codice IATA : DUB


EIDW - Dublin

ULTIMO METAR :
  • 011430Z 31011KT 280V340 9999 FEW023 BKN042 BKN050 09/02 Q1024 NOSIG

METARs OBSOLETI :
  • 011400Z 31009KT 9999 FEW023 SCT032 BKN043 08/02 Q1025 NOSIG
  • 011330Z 31010KT 9999 FEW023 SCT034 BKN042 09/02 Q1025 NOSIG
  • 011300Z 32011KT 9999 FEW023 BKN037 BKN042 09/01 Q1025 NOSIG
  • 011230Z 30014KT 9999 FEW023 BKN039 BKN050 08/02 Q1025 NOSIG
  • 011200Z 32009KT 280V350 9999 FEW023 BKN045 08/02 Q1026 NOSIG

TAF TAF EIDW
Valido dal 01 a 12 ore il 02 a 12 ore UTC


011100Z 0112/0212 32013KT 9999 FEW025 BKN040
BECMG 0119/0121 28010KT
PROB30
TEMPO 0204/0209 BKN014
BECMG 0208/0210 27015G25KT
PROB30
TEMPO 0209/0212 BKN010



MetMap, La meteo Aeronautica in un colpo d'occhio ! - Copyright ORBIFLY Dicembre 2007 - Disclaimer

ORBIFLY MET'MAP TEAM :

Programmazione e sviluppo : Alexandra Zaïnal
Concezione : Baudouin d'Aumeries
Aiuto per la programmazione : Marc-Olivier Méhu
Supporto tecnico e logistico : Manuel Goepfert
Aiuto per la traduzione : Arnaldo La Scala

Contatto : metmap@orbifly.com




FONTI E CREDITI :

   NOAA